createdAt,value
2023-05-19T00:00:14.970Z,9.35
2023-05-19T00:03:22.003Z,9.43
2023-05-19T00:06:26.995Z,9.33
2023-05-19T00:09:32.566Z,9.21
2023-05-19T00:12:37.390Z,9.19
2023-05-19T00:15:41.685Z,9.21
2023-05-19T00:18:45.420Z,9.42
2023-05-19T00:21:49.123Z,9.18
2023-05-19T00:24:54.057Z,9.31
2023-05-19T00:27:59.360Z,9.58
2023-05-19T00:31:03.608Z,9.28
2023-05-19T00:34:07.363Z,9.28
2023-05-19T00:37:11.492Z,9.31
2023-05-19T00:40:17.472Z,9.24
2023-05-19T00:43:21.296Z,9.27
2023-05-19T00:46:26.496Z,9.23
2023-05-19T00:49:30.252Z,9.15
2023-05-19T00:52:34.157Z,9.07
2023-05-19T00:55:40.839Z,8.88
2023-05-19T00:58:45.784Z,9.04
2023-05-19T01:01:52.204Z,8.89
2023-05-19T01:04:57.894Z,8.96
2023-05-19T01:08:01.776Z,8.94
2023-05-19T01:11:08.066Z,9.06
2023-05-19T01:14:11.607Z,9.09
2023-05-19T01:17:23.434Z,9.11
2023-05-19T01:20:36.513Z,8.93
2023-05-19T01:23:54.319Z,8.91
2023-05-19T01:27:42.519Z,8.96
2023-05-19T01:30:52.832Z,8.84
2023-05-19T01:33:57.134Z,8.82
2023-05-19T01:37:03.041Z,8.95
2023-05-19T01:40:09.377Z,9.01
2023-05-19T01:43:15.257Z,8.96
2023-05-19T01:46:23.491Z,9.12
2023-05-19T01:49:27.094Z,9.13
2023-05-19T01:52:30.784Z,9.12
2023-05-19T01:55:34.590Z,9.10
2023-05-19T01:58:45.836Z,8.88
2023-05-19T02:01:56.498Z,9.07
2023-05-19T02:05:10.149Z,9.10
2023-05-19T02:08:18.291Z,9.13
2023-05-19T02:11:28.735Z,9.12
2023-05-19T02:14:40.607Z,9.13
2023-05-19T02:17:48.520Z,8.95
2023-05-19T02:20:52.496Z,8.98
2023-05-19T02:23:56.125Z,9.17
2023-05-19T02:26:59.787Z,9.08
2023-05-19T02:30:03.909Z,9.03
2023-05-19T02:33:11.530Z,8.90
2023-05-19T02:36:15.274Z,9.05
2023-05-19T02:39:18.821Z,8.92
2023-05-19T02:42:24.335Z,8.96
2023-05-19T02:45:28.885Z,8.92
2023-05-19T02:48:35.960Z,8.76
2023-05-19T02:51:40.248Z,8.90
2023-05-19T02:54:44.359Z,8.88
2023-05-19T02:57:48.319Z,8.90
2023-05-19T03:00:52.406Z,8.79
2023-05-19T03:03:57.620Z,8.66
2023-05-19T03:07:02.271Z,8.77
2023-05-19T03:10:06.899Z,8.65
2023-05-19T03:13:10.876Z,8.73
2023-05-19T03:16:17.287Z,8.76
2023-05-19T03:19:22.948Z,8.90
2023-05-19T03:22:26.752Z,8.85
2023-05-19T03:25:30.821Z,8.79
2023-05-19T03:28:36.914Z,8.63
2023-05-19T03:31:40.399Z,8.82
2023-05-19T03:34:45.369Z,8.77
2023-05-19T03:37:51.325Z,8.75
2023-05-19T03:40:54.905Z,8.81
2023-05-19T03:43:59.106Z,8.98
2023-05-19T03:47:02.529Z,8.85
2023-05-19T03:50:35.376Z,8.89
2023-05-19T03:53:49.832Z,8.92
2023-05-19T03:56:53.383Z,8.85
2023-05-19T03:59:56.885Z,8.98
2023-05-19T04:03:01.528Z,9.00
2023-05-19T04:06:06.628Z,8.95
2023-05-19T04:09:14.195Z,9.00
2023-05-19T04:12:17.874Z,9.12
2023-05-19T04:15:22.171Z,9.27
2023-05-19T04:18:27.597Z,9.07
2023-05-19T04:21:33.837Z,9.17
2023-05-19T04:24:37.328Z,9.01
2023-05-19T04:27:41.590Z,9.01
2023-05-19T04:30:46.786Z,9.23
2023-05-19T04:33:50.292Z,9.36
2023-05-19T04:36:55.771Z,9.51
2023-05-19T04:39:59.512Z,9.25
2023-05-19T04:43:04.066Z,9.39
2023-05-19T04:46:12.219Z,9.41
2023-05-19T04:49:19.367Z,9.69
2023-05-19T04:52:24.325Z,9.61
2023-05-19T04:55:28.136Z,9.71
2023-05-19T04:58:31.572Z,9.55
2023-05-19T05:01:40.363Z,9.50
2023-05-19T05:04:46.661Z,9.53
2023-05-19T05:07:54.287Z,9.69
2023-05-19T05:11:00.542Z,9.66
2023-05-19T05:14:04.586Z,9.70
2023-05-19T05:17:10.586Z,9.76
2023-05-19T05:20:15.241Z,9.79
2023-05-19T05:23:21.155Z,9.86
2023-05-19T05:26:31.421Z,9.93
2023-05-19T05:29:34.900Z,9.76
2023-05-19T05:32:40.605Z,9.92
2023-05-19T05:35:51.705Z,9.95
2023-05-19T05:38:56.940Z,10.21
2023-05-19T05:42:01.407Z,10.12
2023-05-19T05:45:05.483Z,10.06
2023-05-19T05:48:09.923Z,10.18
2023-05-19T05:51:13.881Z,10.17
2023-05-19T05:54:23.024Z,10.14
2023-05-19T05:57:27.087Z,10.07
2023-05-19T06:00:30.882Z,9.96
2023-05-19T06:03:34.595Z,10.09
2023-05-19T06:06:43.283Z,10.04
2023-05-19T06:09:50.190Z,10.14
2023-05-19T06:12:53.881Z,9.97
2023-05-19T06:16:00.419Z,10.07
2023-05-19T06:19:13.204Z,10.12
2023-05-19T06:22:17.012Z,10.05
2023-05-19T06:25:23.029Z,10.18
2023-05-19T06:28:26.698Z,10.17
2023-05-19T06:31:31.847Z,10.14
2023-05-19T06:34:42.375Z,10.15
2023-05-19T06:37:46.408Z,10.12
2023-05-19T06:40:51.300Z,10.45
2023-05-19T06:43:55.165Z,10.41
2023-05-19T06:46:58.712Z,10.48
2023-05-19T06:50:02.288Z,10.46
2023-05-19T06:53:09.619Z,10.93
2023-05-19T06:56:15.087Z,10.68
2023-05-19T06:59:21.888Z,11.14
2023-05-19T07:02:26.487Z,11.04
2023-05-19T07:05:30.594Z,11.09
2023-05-19T07:08:37.413Z,11.34
2023-05-19T07:11:44.078Z,11.03
2023-05-19T07:14:48.069Z,11.09
2023-05-19T07:17:53.209Z,10.89
2023-05-19T07:20:58.059Z,11.31
2023-05-19T07:24:01.952Z,11.10
2023-05-19T07:27:07.541Z,11.29
2023-05-19T07:30:11.739Z,11.17
2023-05-19T07:33:15.305Z,11.30
2023-05-19T07:36:18.909Z,11.42
2023-05-19T07:39:22.595Z,11.29
2023-05-19T07:42:28.179Z,11.31
2023-05-19T07:45:31.705Z,11.29
2023-05-19T07:48:35.495Z,11.49
2023-05-19T07:51:39.096Z,11.38
2023-05-19T07:54:42.650Z,11.43
2023-05-19T07:57:47.515Z,11.32
2023-05-19T08:00:51.074Z,11.52
2023-05-19T08:03:54.837Z,11.43
2023-05-19T08:06:58.395Z,11.41
2023-05-19T08:10:02.189Z,11.59
2023-05-19T08:13:07.411Z,11.59
2023-05-19T08:16:11.265Z,11.73
2023-05-19T08:19:14.839Z,11.60
2023-05-19T08:22:18.597Z,11.40
2023-05-19T08:25:22.515Z,11.82
2023-05-19T08:28:27.505Z,11.78
2023-05-19T08:31:31.235Z,11.60
2023-05-19T08:34:34.988Z,11.61
2023-05-19T08:37:38.793Z,11.79
2023-05-19T08:40:44.184Z,11.77
2023-05-19T08:43:50.122Z,11.92
2023-05-19T08:46:56.260Z,11.54
2023-05-19T08:50:07.841Z,11.50
2023-05-19T08:53:31.912Z,11.56
2023-05-19T08:56:36.824Z,11.60
2023-05-19T08:59:42.884Z,11.79
2023-05-19T09:02:55.455Z,11.88
2023-05-19T09:06:09.999Z,11.81
2023-05-19T09:09:15.693Z,11.91
2023-05-19T09:12:19.549Z,11.96
2023-05-19T09:15:28.548Z,12.32
2023-05-19T09:18:32.841Z,11.95
2023-05-19T09:21:36.805Z,12.25
2023-05-19T09:24:40.822Z,11.99
2023-05-19T09:27:44.252Z,12.07
2023-05-19T09:30:49.244Z,11.81
2023-05-19T09:33:55.550Z,12.32
2023-05-19T09:37:00.129Z,12.48
2023-05-19T09:40:06.468Z,12.54
2023-05-19T09:43:10.199Z,12.38
2023-05-19T09:46:15.957Z,12.67
2023-05-19T09:49:23.573Z,12.80
2023-05-19T09:52:27.643Z,12.75
2023-05-19T09:55:33.300Z,13.32
2023-05-19T09:58:37.175Z,13.15
2023-05-19T10:01:46.558Z,12.98
2023-05-19T10:04:51.346Z,13.11
2023-05-19T10:07:59.078Z,13.13
2023-05-19T10:11:03.689Z,13.18
2023-05-19T10:14:07.474Z,13.11
2023-05-19T10:17:13.926Z,13.19
2023-05-19T10:20:18.661Z,13.42
2023-05-19T10:23:22.720Z,13.54
2023-05-19T10:26:27.547Z,13.49
2023-05-19T10:29:35.633Z,13.81
2023-05-19T10:32:44.300Z,13.69
2023-05-19T10:36:11.363Z,13.39
2023-05-19T10:39:23.439Z,13.48
2023-05-19T10:42:36.555Z,13.61
2023-05-19T10:45:47.493Z,13.48
2023-05-19T10:48:53.754Z,13.60
2023-05-19T10:52:00.858Z,13.41
2023-05-19T10:55:09.027Z,13.15
2023-05-19T10:58:13.128Z,13.29
2023-05-19T11:01:18.096Z,13.44
2023-05-19T11:04:49.515Z,13.72
2023-05-19T11:08:02.290Z,13.43
2023-05-19T11:11:15.417Z,13.95
2023-05-19T11:14:20.309Z,13.74
2023-05-19T11:17:27.533Z,13.93
2023-05-19T11:20:35.172Z,13.63
2023-05-19T11:23:40.981Z,13.98
2023-05-19T11:26:44.914Z,14.07
2023-05-19T11:29:49.685Z,13.92
2023-05-19T11:32:55.610Z,13.79
2023-05-19T11:36:00.784Z,13.80
2023-05-19T11:39:05.012Z,13.73
2023-05-19T11:42:10.852Z,13.99
2023-05-19T11:45:14.538Z,13.93
2023-05-19T11:48:18.901Z,14.14
2023-05-19T11:51:24.624Z,14.55
2023-05-19T11:54:32.363Z,14.54
2023-05-19T11:57:36.618Z,14.21
2023-05-19T12:00:41.665Z,14.25
2023-05-19T12:03:45.387Z,14.18
2023-05-19T12:06:52.431Z,14.40
2023-05-19T12:09:58.288Z,14.46
2023-05-19T12:13:02.269Z,14.18
2023-05-19T12:16:06.081Z,14.42
2023-05-19T12:19:10.570Z,14.50
2023-05-19T12:22:17.419Z,14.36
2023-05-19T12:25:21.974Z,14.38
2023-05-19T12:28:25.476Z,14.54
2023-05-19T12:31:29.195Z,14.40
2023-05-19T12:34:32.870Z,14.40
2023-05-19T12:37:42.538Z,14.34
2023-05-19T12:40:45.988Z,14.13
2023-05-19T12:43:49.605Z,14.29
2023-05-19T12:46:53.922Z,14.24
2023-05-19T12:49:58.435Z,14.28
2023-05-19T12:53:03.542Z,14.44
2023-05-19T12:56:14.108Z,14.29
2023-05-19T12:59:34.800Z,14.39
2023-05-19T13:02:57.344Z,14.54
2023-05-19T13:06:01.049Z,14.50
2023-05-19T13:09:11.735Z,14.69
2023-05-19T13:12:15.309Z,14.70
2023-05-19T13:15:19.266Z,14.66
2023-05-19T13:18:25.877Z,14.63
2023-05-19T13:21:30.618Z,14.97
2023-05-19T13:24:36.053Z,15.09
2023-05-19T13:27:39.629Z,15.08
2023-05-19T13:30:46.843Z,15.18
2023-05-19T13:33:50.386Z,15.18
2023-05-19T13:36:54.181Z,14.87
2023-05-19T13:39:59.546Z,14.05
2023-05-19T13:43:03.596Z,14.15
2023-05-19T13:46:07.754Z,14.51
2023-05-19T13:49:13.144Z,14.01
2023-05-19T13:52:17.338Z,14.25
2023-05-19T13:55:23.352Z,14.07
2023-05-19T13:58:30.749Z,14.14
2023-05-19T14:01:34.948Z,14.35
2023-05-19T14:04:39.311Z,14.42
2023-05-19T14:07:46.447Z,14.22
2023-05-19T14:10:52.123Z,14.18
2023-05-19T14:13:56.376Z,14.31
2023-05-19T14:17:02.997Z,14.02
2023-05-19T14:20:07.779Z,14.09
2023-05-19T14:23:11.822Z,14.16
2023-05-19T14:26:25.619Z,14.18
2023-05-19T14:29:31.372Z,13.89
2023-05-19T14:32:35.221Z,14.06
2023-05-19T14:35:41.642Z,14.17
2023-05-19T14:38:45.465Z,14.15
2023-05-19T14:41:53.175Z,13.63
2023-05-19T14:44:57.062Z,13.52
2023-05-19T14:48:00.639Z,13.60
2023-05-19T14:51:04.134Z,13.87
2023-05-19T14:54:08.891Z,13.37
2023-05-19T14:57:14.243Z,13.71
2023-05-19T15:00:19.102Z,13.82
2023-05-19T15:03:23.375Z,13.69
2023-05-19T15:06:27.045Z,13.86
2023-05-19T15:09:30.819Z,13.68
2023-05-19T15:12:36.343Z,13.65
2023-05-19T15:15:39.838Z,13.70
2023-05-19T15:18:43.649Z,13.58
2023-05-19T15:21:47.368Z,13.51
2023-05-19T15:24:50.915Z,13.43
2023-05-19T15:27:56.286Z,13.56
2023-05-19T15:31:00.009Z,13.27
2023-05-19T15:34:03.464Z,13.51
2023-05-19T15:37:07.287Z,13.45
2023-05-19T15:40:13.770Z,13.30
2023-05-19T15:43:20.102Z,13.24
2023-05-19T15:46:23.655Z,13.41
2023-05-19T15:49:27.472Z,13.19
2023-05-19T15:52:30.947Z,13.39
2023-05-19T15:55:35.005Z,13.35
2023-05-19T15:58:43.659Z,13.49
2023-05-19T16:01:47.469Z,13.61
2023-05-19T16:04:51.096Z,13.47
2023-05-19T16:07:54.576Z,13.56
2023-05-19T16:10:58.316Z,13.52
2023-05-19T16:14:03.332Z,13.70
2023-05-19T16:17:12.334Z,13.53
2023-05-19T16:20:15.939Z,13.67
2023-05-19T16:23:19.564Z,13.65
2023-05-19T16:26:23.250Z,13.70
2023-05-19T16:29:28.221Z,13.38
2023-05-19T16:32:31.708Z,13.51
2023-05-19T16:35:36.506Z,13.58
2023-05-19T16:38:39.960Z,13.84
2023-05-19T16:41:43.558Z,14.02
2023-05-19T16:44:48.358Z,13.89
2023-05-19T16:47:54.066Z,13.93
2023-05-19T16:50:58.129Z,13.82
2023-05-19T16:54:01.711Z,13.81
2023-05-19T16:57:07.548Z,13.79
2023-05-19T17:00:14.979Z,13.67
2023-05-19T17:03:18.619Z,13.78
2023-05-19T17:06:22.416Z,13.65
2023-05-19T17:09:26.555Z,13.50
2023-05-19T17:12:30.186Z,13.54
2023-05-19T17:15:35.611Z,13.48
2023-05-19T17:18:39.632Z,13.36
2023-05-19T17:21:43.309Z,13.18
2023-05-19T17:24:47.363Z,13.26
2023-05-19T17:27:59.677Z,13.22
2023-05-19T17:31:11.015Z,13.14
2023-05-19T17:34:15.528Z,13.11
2023-05-19T17:37:23.542Z,13.08
2023-05-19T17:40:27.176Z,13.02
2023-05-19T17:43:30.890Z,13.17
2023-05-19T17:46:37.044Z,13.27
2023-05-19T17:49:41.541Z,13.30
2023-05-19T17:52:45.770Z,13.13
2023-05-19T17:55:53.256Z,13.15
2023-05-19T17:59:00.126Z,13.07
2023-05-19T18:02:06.120Z,13.08
2023-05-19T18:05:15.693Z,13.11
2023-05-19T18:08:20.121Z,12.98
2023-05-19T18:11:27.539Z,12.97
2023-05-19T18:14:31.209Z,12.93
2023-05-19T18:17:37.572Z,12.94
2023-05-19T18:20:44.387Z,13.01
2023-05-19T18:23:52.125Z,12.95
2023-05-19T18:26:55.672Z,13.18
2023-05-19T18:29:59.549Z,13.06
2023-05-19T18:33:04.797Z,12.67
2023-05-19T18:36:09.407Z,12.59
2023-05-19T18:39:15.832Z,12.65
2023-05-19T18:42:19.524Z,12.65
2023-05-19T18:45:25.463Z,12.58
2023-05-19T18:48:31.438Z,12.48
2023-05-19T18:51:36.322Z,12.69
2023-05-19T18:54:42.136Z,12.66
2023-05-19T18:57:46.248Z,12.67
2023-05-19T19:00:51.903Z,12.78
2023-05-19T19:03:56.965Z,12.57
2023-05-19T19:07:00.493Z,12.58
2023-05-19T19:10:04.142Z,12.77
2023-05-19T19:13:07.722Z,12.58
2023-05-19T19:16:11.245Z,12.88
2023-05-19T19:19:17.003Z,12.82
2023-05-19T19:22:27.942Z,12.65
2023-05-19T19:25:31.477Z,12.66
2023-05-19T19:28:35.524Z,12.43
2023-05-19T19:31:39.023Z,12.58
2023-05-19T19:34:47.027Z,12.55
2023-05-19T19:37:53.237Z,12.48
2023-05-19T19:40:57.254Z,12.39
2023-05-19T19:44:00.700Z,12.60
2023-05-19T19:47:07.106Z,12.47
2023-05-19T19:50:15.766Z,12.47
2023-05-19T19:53:19.281Z,12.34
2023-05-19T19:56:27.656Z,12.30
2023-05-19T19:59:31.597Z,12.30
2023-05-19T20:02:41.016Z,12.20
2023-05-19T20:05:57.918Z,12.32
2023-05-19T20:09:06.916Z,12.44
2023-05-19T20:12:13.825Z,12.46
2023-05-19T20:15:17.846Z,12.30
2023-05-19T20:18:21.539Z,12.32
2023-05-19T20:21:29.079Z,12.28
2023-05-19T20:24:32.999Z,12.31
2023-05-19T20:27:36.573Z,12.35
2023-05-19T20:30:42.929Z,12.38
2023-05-19T20:33:49.630Z,12.22
2023-05-19T20:36:55.583Z,11.88
2023-05-19T20:40:01.959Z,11.92
2023-05-19T20:43:05.543Z,11.80
2023-05-19T20:46:11.666Z,11.99
2023-05-19T20:49:15.668Z,12.06
2023-05-19T20:52:21.204Z,12.15
2023-05-19T20:55:24.798Z,12.01
2023-05-19T20:58:30.412Z,11.89
2023-05-19T21:01:35.152Z,11.78
2023-05-19T21:04:39.858Z,11.91
2023-05-19T21:07:44.847Z,11.92
2023-05-19T21:10:49.155Z,12.02
2023-05-19T21:13:52.643Z,12.00
2023-05-19T21:16:57.945Z,11.94
2023-05-19T21:20:02.196Z,11.82
2023-05-19T21:24:03.256Z,11.82
2023-05-19T21:27:08.719Z,11.87
2023-05-19T21:30:13.660Z,11.86
2023-05-19T21:33:20.425Z,11.81
2023-05-19T21:36:26.497Z,11.89
2023-05-19T21:39:37.675Z,11.79
2023-05-19T21:42:43.046Z,11.73
2023-05-19T21:45:46.702Z,11.76
2023-05-19T21:48:53.088Z,11.67
2023-05-19T21:51:57.897Z,11.60
2023-05-19T21:55:03.303Z,11.94
2023-05-19T21:58:10.686Z,11.72
2023-05-19T22:01:14.460Z,11.89
2023-05-19T22:04:18.812Z,11.87
2023-05-19T22:07:27.133Z,11.96
2023-05-19T22:10:33.138Z,12.18
2023-05-19T22:13:41.349Z,11.97
2023-05-19T22:16:45.116Z,12.07
2023-05-19T22:19:48.864Z,12.15
2023-05-19T22:22:52.693Z,12.15
2023-05-19T22:25:56.198Z,12.05
2023-05-19T22:29:01.744Z,11.94
2023-05-19T22:32:06.390Z,11.80
2023-05-19T22:35:12.477Z,11.73
2023-05-19T22:38:15.927Z,11.63
2023-05-19T22:41:19.566Z,11.76
2023-05-19T22:44:24.499Z,11.75
2023-05-19T22:47:30.109Z,11.81
2023-05-19T22:50:35.396Z,11.80
2023-05-19T22:53:39.202Z,11.85
2023-05-19T22:56:46.373Z,11.90
2023-05-19T22:59:52.302Z,11.85
2023-05-19T23:02:56.106Z,11.97
2023-05-19T23:06:00.218Z,12.01
2023-05-19T23:09:04.509Z,12.01
2023-05-19T23:12:08.663Z,11.77
2023-05-19T23:15:14.096Z,11.87
2023-05-19T23:18:17.949Z,11.84
2023-05-19T23:21:21.901Z,12.09
2023-05-19T23:24:25.889Z,11.99
2023-05-19T23:27:29.809Z,11.99
2023-05-19T23:30:38.457Z,11.97
2023-05-19T23:33:42.077Z,11.83
2023-05-19T23:36:45.730Z,12.02
2023-05-19T23:39:49.125Z,12.02
2023-05-19T23:42:52.770Z,11.97
2023-05-19T23:45:58.165Z,11.93
2023-05-19T23:49:02.177Z,12.01
2023-05-19T23:52:06.034Z,11.91
2023-05-19T23:55:12.752Z,11.93
2023-05-19T23:58:16.734Z,12.09
